Time;durP1;ratioP1;P1;durP2;ratioP2;P2;SDS_P1;SDS_P2;PMS_P1;PMS_P2;Temp;Humidity;BMP_temperature;BMP_pressure;BME280_temperature;BME280_humidity;BME280_pressure;Samples;Min_cycle;Max_cycle;Signal;HPM_P1;HPM_P2
2022/07/05 00:00:01;;;;;;;1.50;1.10;;;21.50;99.90;;;;;;1046727;28;20098;-68
2022/07/05 00:00:31;;;;;;;1.37;0.90;;;21.50;99.90;;;;;;1046918;28;20016;-68
2022/07/05 00:01:02;;;;;;;1.10;0.90;;;21.50;99.90;;;;;;1046818;28;20024;-68
2022/07/05 00:01:33;;;;;;;1.23;1.05;;;21.50;99.90;;;;;;1047249;28;20048;-68
2022/07/05 00:02:04;;;;;;;1.57;1.10;;;21.50;99.90;;;;;;1047063;28;20020;-68
2022/07/05 00:02:34;;;;;;;2.40;1.00;;;21.50;99.90;;;;;;1046959;28;20032;-68
2022/07/05 00:03:05;;;;;;;2.17;0.90;;;21.40;99.90;;;;;;1047049;28;20031;-68
2022/07/05 00:03:36;;;;;;;1.00;0.80;;;21.40;99.90;;;;;;1047202;28;20040;-70
2022/07/05 00:04:06;;;;;;;1.00;0.93;;;21.50;99.90;;;;;;1046976;28;20021;-68
2022/07/05 00:04:37;;;;;;;0.73;0.73;;;21.40;99.90;;;;;;1046690;28;20017;-70
2022/07/05 00:05:07;;;;;;;0.90;0.90;;;21.50;99.90;;;;;;1046637;28;20028;-68
2022/07/05 00:05:38;;;;;;;1.00;0.90;;;21.40;99.90;;;;;;1046911;28;20009;-68
2022/07/05 00:06:09;;;;;;;1.33;1.00;;;21.50;99.90;;;;;;1046714;28;20026;-68
2022/07/05 00:07:17;;;;;;;1.83;1.10;;;21.40;99.90;;;;;;1046619;28;20017;-67
2022/07/05 00:07:30;;;;;;;2.55;1.00;;;21.40;99.90;;;;;;1046750;28;20032;-70
2022/07/05 00:08:01;;;;;;;1.53;0.90;;;21.40;99.90;;;;;;1046854;28;20017;-68
2022/07/05 00:08:31;;;;;;;1.77;1.07;;;21.40;99.90;;;;;;1046958;28;20017;-67
2022/07/05 00:09:02;;;;;;;1.67;0.90;;;21.40;99.90;;;;;;1047223;28;20023;-67
2022/07/05 00:09:33;;;;;;;1.35;1.17;;;21.40;99.90;;;;;;1047181;28;20375;-67
2022/07/05 00:10:04;;;;;;;0.90;0.80;;;21.40;99.90;;;;;;1047188;28;20016;-67
2022/07/05 00:10:36;;;;;;;1.80;1.17;;;21.40;99.90;;;;;;1047141;28;20020;-68
2022/07/05 00:11:07;;;;;;;1.27;0.93;;;21.40;99.90;;;;;;1047161;28;20009;-68
2022/07/05 00:11:37;;;;;;;1.13;0.70;;;21.40;99.90;;;;;;1047118;28;20016;-68
2022/07/05 00:12:08;;;;;;;1.30;1.00;;;21.40;99.90;;;;;;1047184;28;20375;-68
2022/07/05 00:12:39;;;;;;;2.75;1.20;;;21.40;99.90;;;;;;1047069;28;20021;-67
2022/07/05 00:13:10;;;;;;;1.03;0.93;;;21.40;99.90;;;;;;1047216;28;20100;-68
2022/07/05 00:13:41;;;;;;;1.13;0.90;;;21.30;99.90;;;;;;1047098;28;20017;-67
2022/07/05 00:14:11;;;;;;;1.37;1.13;;;21.30;99.90;;;;;;1043855;28;20441;-67
2022/07/05 00:14:44;;;;;;;1.63;1.10;;;21.30;99.90;;;;;;1042906;28;20024;-67
2022/07/05 00:15:14;;;;;;;1.35;0.82;;;21.30;99.90;;;;;;1046055;28;20044;-67
2022/07/05 00:15:45;;;;;;;1.50;1.00;;;21.30;99.90;;;;;;1047087;28;20026;-67
2022/07/05 00:16:15;;;;;;;1.47;1.00;;;21.30;99.90;;;;;;1047164;28;20020;-67
2022/07/05 00:16:46;;;;;;;1.67;1.20;;;21.30;99.90;;;;;;1047109;28;20319;-67
2022/07/05 00:17:17;;;;;;;1.67;1.27;;;21.30;99.90;;;;;;1047132;28;20199;-69
2022/07/05 00:17:47;;;;;;;1.20;1.10;;;21.30;99.90;;;;;;1047152;28;20082;-68
2022/07/05 00:18:18;;;;;;;3.33;1.27;;;21.30;99.90;;;;;;1047126;28;20016;-67
2022/07/05 00:18:49;;;;;;;1.57;0.90;;;21.30;99.90;;;;;;1046961;28;20036;-66
2022/07/05 00:19:19;;;;;;;1.00;0.80;;;21.30;99.90;;;;;;1047235;28;20074;-66
2022/07/05 00:19:50;;;;;;;2.00;1.20;;;21.30;99.90;;;;;;1046534;28;20719;-67
2022/07/05 00:20:20;;;;;;;1.10;0.90;;;21.30;99.90;;;;;;1046872;28;20017;-67
2022/07/05 00:20:51;;;;;;;0.70;0.70;;;21.30;99.90;;;;;;1046837;28;20499;-67
2022/07/05 00:21:21;;;;;;;1.43;1.00;;;21.30;99.90;;;;;;1046820;28;20047;-67
2022/07/05 00:21:52;;;;;;;1.50;1.20;;;21.30;99.90;;;;;;1047012;28;20031;-67
2022/07/05 00:22:22;;;;;;;1.47;1.23;;;21.30;99.90;;;;;;1047083;28;20070;-67
2022/07/05 00:22:53;;;;;;;0.80;0.80;;;21.20;99.90;;;;;;1047155;28;20028;-67
2022/07/05 00:23:23;;;;;;;0.90;0.80;;;21.20;99.90;;;;;;1047114;28;20048;-68
2022/07/05 00:23:54;;;;;;;1.67;1.30;;;21.20;99.90;;;;;;1047124;28;20095;-68
2022/07/05 00:24:25;;;;;;;0.90;0.80;;;21.20;99.90;;;;;;1047059;28;20024;-68
2022/07/05 00:24:56;;;;;;;0.93;0.80;;;21.20;99.90;;;;;;1047082;28;20021;-67
2022/07/05 00:25:27;;;;;;;1.63;1.00;;;21.20;99.90;;;;;;1046579;28;20029;-68
2022/07/05 00:25:57;;;;;;;4.87;1.30;;;21.20;99.90;;;;;;1046769;28;20123;-68
2022/07/05 00:26:28;;;;;;;1.67;1.20;;;21.20;99.90;;;;;;1046715;28;20079;-69
2022/07/05 00:26:59;;;;;;;1.23;0.80;;;21.20;99.90;;;;;;1046859;28;20016;-67
2022/07/05 00:27:29;;;;;;;1.73;0.90;;;21.20;99.90;;;;;;1047156;28;20013;-67
2022/07/05 00:28:00;;;;;;;1.67;1.10;;;21.20;99.90;;;;;;1047063;28;20012;-67
2022/07/05 00:28:30;;;;;;;1.03;0.80;;;21.20;99.90;;;;;;1047219;28;20408;-68
2022/07/05 00:29:01;;;;;;;1.13;0.90;;;21.20;99.90;;;;;;1047252;28;20097;-68
2022/07/05 00:29:32;;;;;;;2.63;1.40;;;21.20;99.90;;;;;;1046453;28;20588;-67
2022/07/05 00:30:05;;;;;;;1.50;0.93;;;21.20;99.90;;;;;;1046811;28;20092;-69
2022/07/05 00:30:35;;;;;;;1.25;0.90;;;21.20;99.90;;;;;;1046666;28;20047;-68
2022/07/05 00:31:06;;;;;;;1.10;1.00;;;21.20;99.90;;;;;;1046637;28;20021;-67
2022/07/05 00:31:36;;;;;;;1.73;1.07;;;21.20;99.90;;;;;;1047296;28;20024;-69
2022/07/05 00:32:07;;;;;;;1.33;1.10;;;21.20;99.90;;;;;;1047097;28;20020;-67
2022/07/05 00:32:38;;;;;;;1.30;0.80;;;21.20;99.90;;;;;;1047022;28;20067;-67
2022/07/05 00:33:08;;;;;;;1.75;1.08;;;21.20;99.90;;;;;;1047119;28;20027;-67
2022/07/05 00:33:39;;;;;;;1.80;1.00;;;21.20;99.90;;;;;;1046951;28;20016;-66
2022/07/05 00:34:10;;;;;;;2.90;1.13;;;21.20;99.90;;;;;;1047414;28;20091;-69
2022/07/05 00:34:40;;;;;;;1.03;0.93;;;21.20;99.90;;;;;;1046976;28;20379;-67
2022/07/05 00:35:12;;;;;;;1.43;0.93;;;21.20;99.90;;;;;;1047096;28;20426;-68
2022/07/05 00:35:42;;;;;;;1.05;0.90;;;21.20;99.90;;;;;;1046969;28;20021;-68
2022/07/05 00:36:13;;;;;;;1.43;1.00;;;21.20;99.90;;;;;;1047030;28;20008;-67
2022/07/05 00:36:44;;;;;;;1.30;0.90;;;21.10;99.90;;;;;;1047207;28;20431;-68
2022/07/05 00:37:14;;;;;;;1.63;1.20;;;21.10;99.90;;;;;;1047149;28;20594;-68
2022/07/05 00:37:45;;;;;;;1.40;1.13;;;21.20;99.90;;;;;;1047099;28;20701;-68
2022/07/05 00:38:15;;;;;;;0.97;0.90;;;21.20;99.90;;;;;;1047177;28;20505;-67
2022/07/05 00:38:46;;;;;;;1.70;1.00;;;21.10;99.90;;;;;;1046557;28;20434;-68
2022/07/05 00:39:16;;;;;;;1.37;1.07;;;21.20;99.90;;;;;;1046881;28;20009;-68
2022/07/05 00:39:47;;;;;;;1.10;0.90;;;21.10;99.90;;;;;;1046680;28;20469;-67
2022/07/05 00:40:17;;;;;;;1.77;0.87;;;21.10;99.90;;;;;;1043384;28;20096;-68
2022/07/05 00:40:48;;;;;;;1.87;1.20;;;21.10;99.90;;;;;;1042669;28;20111;-69
2022/07/05 00:41:18;;;;;;;1.57;0.80;;;21.10;99.90;;;;;;1043007;28;20019;-67
2022/07/05 00:41:49;;;;;;;1.30;1.20;;;21.10;99.90;;;;;;1043084;28;20022;-67
2022/07/05 00:42:19;;;;;;;1.50;1.00;;;21.10;99.90;;;;;;1042977;28;20051;-68
2022/07/05 00:42:50;;;;;;;1.13;0.90;;;21.10;99.90;;;;;;1042988;28;20108;-67
2022/07/05 00:43:20;;;;;;;1.70;1.27;;;21.10;99.90;;;;;;1042774;28;20019;-67
2022/07/05 00:43:59;;;;;;;0.80;0.80;;;21.10;99.90;;;;;;1042965;28;20559;-68
2022/07/05 00:44:35;;;;;;;2.28;1.65;;;21.10;99.90;;;;;;1044766;28;20017;-69
2022/07/05 00:45:07;;;;;;;1.42;1.10;;;21.10;99.90;;;;;;1046735;28;20391;-68
2022/07/05 00:45:38;;;;;;;0.98;0.82;;;21.10;99.90;;;;;;1046758;28;20112;-68
2022/07/05 00:46:09;;;;;;;1.10;0.87;;;21.10;99.90;;;;;;1042390;28;20021;-68
2022/07/05 00:46:42;;;;;;;1.43;1.10;;;21.10;99.90;;;;;;1042505;28;20044;-68
2022/07/05 00:47:12;;;;;;;2.20;1.00;;;21.00;99.90;;;;;;1043252;28;20021;-68
2022/07/05 00:47:43;;;;;;;2.03;1.00;;;21.00;99.90;;;;;;1046656;28;20501;-68
2022/07/05 00:48:14;;;;;;;1.67;0.90;;;21.00;99.90;;;;;;1047117;28;20046;-68
2022/07/05 00:48:44;;;;;;;1.30;1.07;;;21.00;99.90;;;;;;1046575;28;20654;-68
2022/07/05 00:49:15;;;;;;;0.77;0.77;;;21.00;99.90;;;;;;1046780;28;20494;-69
2022/07/05 00:49:45;;;;;;;1.57;1.10;;;21.00;99.90;;;;;;1046905;28;20430;-68
2022/07/05 00:50:16;;;;;;;0.80;0.80;;;21.00;99.90;;;;;;1046667;28;20593;-68
2022/07/05 00:50:47;;;;;;;2.37;1.00;;;21.00;99.90;;;;;;1047030;28;20027;-68
2022/07/05 00:51:18;;;;;;;1.20;1.10;;;21.00;99.90;;;;;;1046676;28;20048;-68
2022/07/05 00:51:49;;;;;;;1.73;0.90;;;21.00;99.90;;;;;;1046576;28;20033;-70
2022/07/05 00:52:19;;;;;;;0.80;0.80;;;21.00;99.90;;;;;;1046792;28;20048;-68
2022/07/05 00:52:54;;;;;;;1.50;1.00;;;21.00;99.90;;;;;;1046748;28;20028;-68
2022/07/05 00:53:24;;;;;;;1.42;1.02;;;21.00;99.90;;;;;;1046710;28;20017;-68
2022/07/05 00:53:55;;;;;;;1.33;0.87;;;21.00;99.90;;;;;;1046589;28;20028;-68
2022/07/05 00:54:27;;;;;;;1.53;0.97;;;21.00;99.90;;;;;;1042539;28;20472;-68
2022/07/05 00:54:58;;;;;;;1.65;1.20;;;21.00;99.90;;;;;;1042611;28;20017;-68
2022/07/05 00:55:29;;;;;;;0.80;0.80;;;21.00;99.90;;;;;;1043013;28;20020;-69
2022/07/05 00:55:59;;;;;;;0.97;0.87;;;21.00;99.90;;;;;;1046534;28;20502;-68
2022/07/05 00:56:30;;;;;;;1.07;0.97;;;21.00;99.90;;;;;;1046778;28;20013;-68
2022/07/05 00:57:01;;;;;;;1.63;1.20;;;21.00;99.90;;;;;;1046665;28;20036;-70
2022/07/05 00:57:33;;;;;;;1.07;0.80;;;21.00;99.90;;;;;;1047327;28;20013;-68
2022/07/05 00:58:04;;;;;;;1.85;1.00;;;21.00;99.90;;;;;;1046847;28;20012;-68
2022/07/05 00:58:35;;;;;;;1.37;1.00;;;21.00;99.90;;;;;;1047109;28;20047;-68
2022/07/05 00:59:05;;;;;;;2.08;1.33;;;21.00;99.90;;;;;;1046366;28;20852;-68
2022/07/05 00:59:36;;;;;;;1.00;0.87;;;21.00;99.90;;;;;;1046842;28;20535;-69
2022/07/05 01:00:07;;;;;;;1.40;1.10;;;20.90;99.90;;;;;;1046482;28;20093;-68
2022/07/05 01:00:38;;;;;;;1.25;1.00;;;20.90;99.90;;;;;;1042528;28;20048;-68
2022/07/05 01:01:10;;;;;;;1.20;1.10;;;20.90;99.90;;;;;;1042429;28;20466;-68
2022/07/05 01:01:41;;;;;;;1.35;0.98;;;20.90;99.90;;;;;;1042590;28;20009;-68
2022/07/05 01:02:12;;;;;;;1.13;0.95;;;20.90;99.90;;;;;;1042886;28;20060;-69
2022/07/05 01:02:42;;;;;;;1.00;0.87;;;20.90;99.90;;;;;;1046561;28;20029;-67
2022/07/05 01:03:13;;;;;;;0.83;0.70;;;20.90;99.90;;;;;;1046632;28;20013;-68
2022/07/05 01:03:45;;;;;;;0.73;0.73;;;20.90;99.90;;;;;;1046782;28;20416;-68
2022/07/05 01:04:15;;;;;;;1.90;1.17;;;20.90;99.90;;;;;;1046980;28;20016;-68
2022/07/05 01:04:51;;;;;;;1.83;1.13;;;20.90;99.90;;;;;;1046599;28;20074;-69
2022/07/05 01:05:22;;;;;;;3.63;0.95;;;20.90;99.90;;;;;;1038367;28;20013;-69
2022/07/05 01:05:52;;;;;;;1.77;1.20;;;20.90;99.90;;;;;;1038392;28;20021;-68
2022/07/05 01:06:23;;;;;;;1.20;0.80;;;20.90;99.90;;;;;;1039352;28;20017;-69
2022/07/05 01:06:55;;;;;;;1.40;1.10;;;20.90;99.90;;;;;;1042805;28;20025;-69
2022/07/05 01:07:26;;;;;;;1.35;0.98;;;20.90;99.90;;;;;;1046588;28;20012;-68
2022/07/05 01:08:00;;;;;;;1.03;0.80;;;20.90;99.90;;;;;;1047235;28;20024;-68
2022/07/05 01:08:34;;;;;;;1.10;0.95;;;20.90;99.90;;;;;;1046993;28;20048;-68
2022/07/05 01:09:05;;;;;;;2.78;1.02;;;20.90;99.90;;;;;;1047369;28;20031;-68
2022/07/05 01:09:35;;;;;;;2.45;1.23;;;20.90;99.90;;;;;;1047409;28;20017;-68
2022/07/05 01:10:07;;;;;;;1.17;0.97;;;20.90;99.90;;;;;;1047486;28;20078;-71
2022/07/05 01:10:37;;;;;;;1.27;0.98;;;20.90;99.90;;;;;;1047596;28;20017;-69
2022/07/05 01:11:10;;;;;;;1.60;1.00;;;20.90;99.90;;;;;;1047853;28;20039;-68
2022/07/05 01:11:42;;;;;;;3.95;1.20;;;20.90;99.90;;;;;;1047661;28;20017;-68
2022/07/05 01:12:13;;;;;;;1.23;0.90;;;20.90;99.90;;;;;;1047763;28;20379;-69
2022/07/05 01:12:45;;;;;;;1.23;0.90;;;20.90;99.90;;;;;;1047389;28;20013;-68
2022/07/05 01:13:15;;;;;;;1.42;1.17;;;20.90;99.90;;;;;;1047556;28;20044;-68
2022/07/05 01:13:46;;;;;;;1.20;1.10;;;20.90;99.90;;;;;;1047317;28;20074;-68
2022/07/05 01:14:22;;;;;;;1.60;1.27;;;20.90;99.90;;;;;;1043508;28;20666;-68
2022/07/05 01:14:54;;;;;;;1.20;1.00;;;20.90;99.90;;;;;;1039014;28;20489;-67
2022/07/05 01:15:26;;;;;;;2.58;1.05;;;20.90;99.90;;;;;;1040373;28;20779;-68
2022/07/05 01:16:00;;;;;;;1.13;0.90;;;20.90;99.90;;;;;;1043327;28;20028;-68
2022/07/05 01:16:31;;;;;;;1.35;0.95;;;20.90;99.90;;;;;;1039995;28;20013;-68
2022/07/05 01:17:02;;;;;;;0.93;0.80;;;20.90;99.90;;;;;;1043334;28;20009;-68
2022/07/05 01:17:35;;;;;;;1.23;1.13;;;20.90;99.90;;;;;;1043317;28;20051;-67
2022/07/05 01:18:06;;;;;;;1.40;1.08;;;20.90;99.90;;;;;;1043381;28;20013;-69
2022/07/05 01:18:37;;;;;;;1.58;0.95;;;20.90;99.90;;;;;;1043284;28;20193;-68
2022/07/05 01:19:10;;;;;;;1.00;0.90;;;20.90;99.90;;;;;;1043202;28;20096;-68
2022/07/05 01:19:40;;;;;;;0.80;0.77;;;20.80;99.90;;;;;;1043303;28;20017;-67
2022/07/05 01:20:11;;;;;;;2.30;0.97;;;20.80;99.90;;;;;;1043717;28;20013;-68
2022/07/05 01:20:42;;;;;;;0.80;0.80;;;20.80;99.90;;;;;;1047082;28;20013;-68
2022/07/05 01:21:15;;;;;;;0.90;0.90;;;20.80;99.90;;;;;;1043781;28;20020;-68
2022/07/05 01:21:48;;;;;;;1.75;0.90;;;20.80;99.90;;;;;;1043563;28;20013;-68
2022/07/05 01:22:20;;;;;;;2.05;1.05;;;20.80;99.90;;;;;;1043679;28;20017;-68
2022/07/05 01:22:55;;;;;;;1.50;1.10;;;20.80;99.90;;;;;;1043642;28;20013;-69
2022/07/05 01:23:32;;;;;;;1.08;1.05;;;20.80;99.90;;;;;;1043754;28;20009;-67
2022/07/05 01:24:04;;;;;;;1.30;1.00;;;20.80;99.90;;;;;;1043239;28;20276;-69
2022/07/05 01:24:34;;;;;;;0.90;0.90;;;20.80;99.90;;;;;;1043301;28;20016;-68
2022/07/05 01:25:05;;;;;;;1.60;1.27;;;20.80;99.90;;;;;;1043236;28;20028;-68
2022/07/05 01:25:36;;;;;;;1.38;1.10;;;20.80;99.90;;;;;;1039540;28;20022;-67
2022/07/05 01:26:07;;;;;;;0.80;0.80;;;20.80;99.90;;;;;;1043129;28;20100;-69
2022/07/05 01:26:39;;;;;;;1.53;0.90;;;20.80;99.90;;;;;;1043291;28;20142;-69
2022/07/05 01:27:10;;;;;;;0.80;0.70;;;20.70;99.90;;;;;;1043348;28;20062;-69
2022/07/05 01:27:41;;;;;;;0.90;0.80;;;20.80;99.90;;;;;;1043044;28;20087;-67
2022/07/05 01:28:12;;;;;;;2.33;1.00;;;20.80;99.90;;;;;;1043319;28;20013;-68
2022/07/05 01:28:44;;;;;;;1.88;1.13;;;20.80;99.90;;;;;;1043385;28;20268;-69
2022/07/05 01:29:15;;;;;;;1.23;0.90;;;20.70;99.90;;;;;;1043349;28;20025;-69
2022/07/05 01:29:46;;;;;;;1.48;0.88;;;20.80;99.90;;;;;;1043635;28;20087;-68
2022/07/05 01:30:17;;;;;;;0.97;0.87;;;20.80;99.90;;;;;;1043527;28;20083;-68
2022/07/05 01:30:48;;;;;;;2.47;0.90;;;20.70;99.90;;;;;;1043594;28;20033;-68
2022/07/05 01:31:19;;;;;;;1.83;1.00;;;20.70;99.90;;;;;;1043646;28;20104;-68
2022/07/05 01:31:49;;;;;;;1.10;0.80;;;20.70;99.90;;;;;;1043137;28;20021;-68
2022/07/05 01:32:20;;;;;;;0.87;0.87;;;20.70;99.90;;;;;;1043156;28;20670;-69
2022/07/05 01:32:51;;;;;;;2.33;1.20;;;20.70;99.90;;;;;;1043308;28;20021;-68
2022/07/05 01:33:29;;;;;;;2.05;1.00;;;20.70;99.90;;;;;;1043304;28;20017;-68
2022/07/05 01:33:59;;;;;;;1.23;1.00;;;20.70;99.90;;;;;;1043509;28;20053;-68
2022/07/05 01:34:30;;;;;;;1.10;1.00;;;20.70;99.90;;;;;;1043521;28;20017;-67
2022/07/05 01:35:01;;;;;;;0.90;0.90;;;20.70;99.90;;;;;;1043453;28;20059;-68
2022/07/05 01:35:32;;;;;;;1.53;0.90;;;20.70;99.90;;;;;;1043423;28;20155;-68
2022/07/05 01:36:03;;;;;;;1.63;1.00;;;20.70;99.90;;;;;;1043336;28;20017;-69
2022/07/05 01:36:35;;;;;;;1.93;1.40;;;20.70;99.90;;;;;;1046530;28;20028;-67
2022/07/05 01:37:06;;;;;;;2.00;1.10;;;20.70;99.90;;;;;;1047270;28;20490;-69
2022/07/05 01:37:37;;;;;;;2.50;1.10;;;20.70;99.90;;;;;;1043222;28;20017;-68
2022/07/05 01:38:11;;;;;;;1.38;1.00;;;20.70;99.90;;;;;;1043535;28;20393;-69
2022/07/05 01:38:42;;;;;;;1.00;0.90;;;20.70;99.90;;;;;;1047401;28;20016;-69
2022/07/05 01:39:13;;;;;;;1.25;1.15;;;20.70;99.90;;;;;;1047423;28;20029;-68
2022/07/05 01:39:45;;;;;;;1.27;1.08;;;20.70;99.90;;;;;;1047626;28;20017;-68
2022/07/05 01:40:18;;;;;;;2.38;1.10;;;20.60;99.90;;;;;;1047718;28;20024;-67
2022/07/05 01:40:51;;;;;;;1.50;1.00;;;20.70;99.90;;;;;;1047510;28;20031;-67
2022/07/05 01:41:22;;;;;;;2.28;0.98;;;20.70;99.90;;;;;;1047636;28;20088;-69
2022/07/05 01:41:53;;;;;;;1.43;1.17;;;20.70;99.90;;;;;;1047243;28;20111;-67
2022/07/05 01:42:24;;;;;;;1.77;1.10;;;20.70;99.90;;;;;;1047244;28;20159;-67
2022/07/05 01:42:55;;;;;;;1.77;1.30;;;20.70;99.90;;;;;;1047177;28;20078;-68
2022/07/05 01:43:25;;;;;;;1.67;1.17;;;20.70;99.90;;;;;;1047191;28;20020;-68
2022/07/05 01:43:56;;;;;;;1.70;1.20;;;20.70;99.90;;;;;;1047177;28;20020;-69
2022/07/05 01:44:26;;;;;;;1.73;1.27;;;20.70;99.90;;;;;;1047077;28;20069;-68
2022/07/05 01:44:57;;;;;;;1.23;0.97;;;20.70;99.90;;;;;;1047760;28;20028;-68
2022/07/05 01:45:39;;;;;;;1.07;0.97;;;20.70;99.90;;;;;;1047617;28;20229;-68
2022/07/05 01:46:12;;;;;;;0.80;0.75;;;20.70;99.90;;;;;;1047280;28;20125;-67
2022/07/05 01:46:43;;;;;;;1.10;1.00;;;20.60;99.90;;;;;;1047303;28;20020;-67
2022/07/05 01:47:16;;;;;;;3.03;1.20;;;20.60;99.90;;;;;;1047289;28;20016;-67
2022/07/05 01:47:48;;;;;;;1.33;0.98;;;20.70;99.90;;;;;;1047229;28;20025;-67
2022/07/05 01:48:20;;;;;;;1.23;1.00;;;20.70;99.90;;;;;;1047093;28;20051;-67
2022/07/05 01:48:55;;;;;;;1.40;1.30;;;20.60;99.90;;;;;;1047383;28;20016;-68
2022/07/05 01:49:28;;;;;;;1.00;0.90;;;20.70;99.90;;;;;;1047407;28;20369;-67
2022/07/05 01:50:00;;;;;;;1.88;1.23;;;20.70;99.90;;;;;;1047297;28;20017;-68
2022/07/05 01:50:36;;;;;;;1.17;0.98;;;20.70;99.90;;;;;;1047302;28;20017;-67
2022/07/05 01:51:20;;;;;;;1.33;0.93;;;20.70;99.90;;;;;;1047265;28;20447;-68
2022/07/05 01:52:02;;;;;;;1.77;1.23;;;20.70;99.90;;;;;;1046038;28;20632;-69
2022/07/05 01:52:36;;;;;;;1.23;1.05;;;20.70;99.90;;;;;;1047199;28;20467;-67
2022/07/05 01:53:11;;;;;;;1.17;1.05;;;20.60;99.90;;;;;;1047457;28;20024;-68
2022/07/05 01:53:44;;;;;;;1.23;1.10;;;20.60;99.90;;;;;;1047116;28;20027;-67
2022/07/05 01:54:14;;;;;;;1.38;1.25;;;20.60;99.90;;;;;;1047494;28;20710;-67
2022/07/05 01:54:45;;;;;;;1.30;1.20;;;20.60;99.90;;;;;;1047082;28;20695;-68
2022/07/05 01:55:15;;;;;;;1.57;1.40;;;20.60;99.90;;;;;;1044538;28;20039;-69
2022/07/05 01:55:46;;;;;;;1.17;1.07;;;20.60;99.90;;;;;;1047058;28;20039;-67
2022/07/05 01:56:17;;;;;;;2.50;1.20;;;20.60;99.90;;;;;;1047709;28;20115;-68
2022/07/05 01:56:48;;;;;;;1.70;1.03;;;20.60;99.90;;;;;;1047611;28;20111;-68
2022/07/05 01:57:19;;;;;;;1.40;1.20;;;20.60;99.90;;;;;;1047772;28;20095;-67
2022/07/05 01:57:50;;;;;;;1.40;1.17;;;20.60;99.90;;;;;;1047530;28;20529;-68
2022/07/05 01:58:21;;;;;;;1.77;1.45;;;20.60;99.90;;;;;;1047186;28;20013;-68
2022/07/05 01:58:53;;;;;;;1.57;1.37;;;20.60;99.90;;;;;;1047248;28;20040;-68
2022/07/05 01:59:24;;;;;;;1.90;1.30;;;20.60;99.90;;;;;;1044226;28;20107;-68
2022/07/05 01:59:54;;;;;;;1.23;1.08;;;20.60;99.90;;;;;;1043038;28;20097;-68
2022/07/05 02:00:25;;;;;;;1.77;1.30;;;20.60;99.90;;;;;;1043525;28;20270;-68
2022/07/05 02:00:56;;;;;;;1.40;1.23;;;20.60;99.90;;;;;;1043354;28;20020;-67
2022/07/05 02:01:36;;;;;;;3.63;1.30;;;20.60;99.90;;;;;;1043553;28;20542;-67
2022/07/05 02:02:08;;;;;;;1.65;1.25;;;20.60;99.90;;;;;;1043322;28;20009;-67
2022/07/05 02:02:41;;;;;;;2.25;1.25;;;20.60;99.90;;;;;;1043354;28;20041;-68
2022/07/05 02:03:14;;;;;;;2.08;1.10;;;20.60;99.90;;;;;;1043619;28;20793;-68
2022/07/05 02:03:45;;;;;;;1.33;1.10;;;20.50;99.90;;;;;;1042872;28;20020;-68
2022/07/05 02:04:17;;;;;;;1.90;1.37;;;20.60;99.90;;;;;;1043234;28;20032;-68
2022/07/05 02:04:48;;;;;;;2.15;1.45;;;20.50;99.90;;;;;;1042987;28;20107;-68
2022/07/05 02:05:19;;;;;;;1.93;1.10;;;20.50;99.90;;;;;;1043050;28;20017;-68
2022/07/05 02:05:49;;;;;;;1.73;1.40;;;20.60;99.90;;;;;;1043149;28;20111;-68
2022/07/05 02:06:20;;;;;;;1.57;1.27;;;20.50;99.90;;;;;;1043084;28;20419;-68
2022/07/05 02:06:50;;;;;;;1.63;1.50;;;20.60;99.90;;;;;;1043169;28;20096;-68
2022/07/05 02:07:21;;;;;;;1.50;1.20;;;20.50;99.90;;;;;;1043108;28;20064;-69
2022/07/05 02:07:51;;;;;;;2.17;1.17;;;20.50;99.90;;;;;;1043547;28;20291;-67
2022/07/05 02:08:29;;;;;;;1.97;1.27;;;20.50;99.90;;;;;;1043079;28;20556;-68
2022/07/05 02:09:01;;;;;;;2.70;1.20;;;20.50;99.90;;;;;;1043045;28;20024;-68
2022/07/05 02:09:31;;;;;;;1.33;1.20;;;20.50;99.90;;;;;;1043083;28;20020;-68
2022/07/05 02:10:03;;;;;;;1.97;1.40;;;20.50;99.90;;;;;;1043071;28;20096;-68
2022/07/05 02:10:35;;;;;;;1.05;1.05;;;20.50;99.90;;;;;;1043170;28;20005;-68
2022/07/05 02:11:06;;;;;;;1.20;1.10;;;20.50;99.90;;;;;;1043270;28;20092;-68
2022/07/05 02:11:36;;;;;;;1.80;1.33;;;20.50;99.90;;;;;;1043262;28;20035;-67
2022/07/05 02:12:07;;;;;;;1.20;0.97;;;20.50;99.90;;;;;;1043377;28;20021;-68
2022/07/05 02:12:38;;;;;;;1.45;1.35;;;20.50;99.90;;;;;;1043286;28;20475;-68
2022/07/05 02:13:09;;;;;;;1.60;1.20;;;20.50;99.90;;;;;;1043426;28;20723;-68
2022/07/05 02:13:40;;;;;;;2.05;1.15;;;20.40;99.90;;;;;;1043340;28;20017;-68
2022/07/05 02:14:11;;;;;;;2.30;1.20;;;20.50;99.90;;;;;;1043416;28;20108;-68
2022/07/05 02:14:42;;;;;;;1.70;1.20;;;20.50;99.90;;;;;;1043313;28;20051;-68
2022/07/05 02:15:12;;;;;;;1.67;1.37;;;20.40;99.90;;;;;;1046202;28;20028;-68
2022/07/05 02:15:43;;;;;;;2.40;1.10;;;20.50;99.90;;;;;;1047433;28;20032;-68
2022/07/05 02:16:13;;;;;;;2.27;1.37;;;20.40;99.90;;;;;;1047752;28;20028;-68
2022/07/05 02:16:44;;;;;;;1.33;1.13;;;20.40;99.90;;;;;;1047519;28;20434;-68
2022/07/05 02:17:15;;;;;;;1.03;1.00;;;20.40;99.90;;;;;;1047273;28;20025;-68
2022/07/05 02:17:45;;;;;;;1.30;1.20;;;20.40;99.90;;;;;;1047115;28;20028;-68
2022/07/05 02:18:16;;;;;;;1.40;1.10;;;20.40;99.90;;;;;;1047299;28;20020;-68
2022/07/05 02:18:46;;;;;;;2.00;1.20;;;20.40;99.90;;;;;;1047051;28;20114;-68
2022/07/05 02:19:17;;;;;;;1.37;1.20;;;20.40;99.90;;;;;;1047512;28;20573;-68
2022/07/05 02:19:47;;;;;;;2.73;1.73;;;20.40;99.90;;;;;;1047369;28;20024;-69
2022/07/05 02:20:18;;;;;;;1.10;1.00;;;20.40;99.90;;;;;;1046977;28;20385;-69
2022/07/05 02:20:49;;;;;;;2.45;1.30;;;20.40;99.90;;;;;;1043039;28;20087;-68
2022/07/05 02:21:20;;;;;;;1.50;1.03;;;20.40;99.90;;;;;;1043244;28;20021;-68
2022/07/05 02:21:51;;;;;;;1.13;1.00;;;20.40;99.90;;;;;;1039092;28;20029;-69
2022/07/05 02:22:21;;;;;;;1.23;1.10;;;20.40;99.90;;;;;;1043223;28;20021;-69
2022/07/05 02:22:52;;;;;;;1.53;1.20;;;20.40;99.90;;;;;;1047256;28;20085;-68
2022/07/05 02:23:22;;;;;;;1.37;1.10;;;20.40;99.90;;;;;;1047064;28;20024;-69
2022/07/05 02:23:53;;;;;;;0.90;0.90;;;20.40;99.90;;;;;;1047779;28;20032;-68
2022/07/05 02:24:24;;;;;;;2.35;1.30;;;20.40;99.90;;;;;;1047328;28;20028;-68
2022/07/05 02:24:55;;;;;;;1.23;1.00;;;20.40;99.90;;;;;;1047690;28;20020;-68
2022/07/05 02:25:26;;;;;;;1.10;1.00;;;20.50;99.90;;;;;;1047482;28;20259;-68
2022/07/05 02:25:57;;;;;;;1.58;1.05;;;20.40;99.90;;;;;;1047548;28;20020;-68
2022/07/05 02:26:27;;;;;;;1.30;1.20;;;20.50;99.90;;;;;;1047519;28;20025;-68
2022/07/05 02:26:59;;;;;;;4.77;1.20;;;20.50;99.90;;;;;;1047629;28;20029;-68
2022/07/05 02:27:29;;;;;;;2.45;1.33;;;20.40;99.90;;;;;;1047211;28;20133;-68
2022/07/05 02:28:00;;;;;;;2.40;1.10;;;20.50;99.90;;;;;;1047090;28;20172;-69
2022/07/05 02:28:31;;;;;;;1.55;1.20;;;20.40;99.90;;;;;;1047034;28;20106;-68
2022/07/05 02:29:03;;;;;;;2.00;1.20;;;20.50;99.90;;;;;;1047176;28;20435;-68
2022/07/05 02:29:34;;;;;;;2.00;1.23;;;20.50;99.90;;;;;;1047541;28;20031;-68
2022/07/05 02:30:05;;;;;;;1.47;1.10;;;20.40;99.90;;;;;;1047540;28;20024;-71
2022/07/05 02:30:35;;;;;;;1.35;1.10;;;20.50;99.90;;;;;;1047544;28;20017;-68
2022/07/05 02:31:06;;;;;;;1.73;1.40;;;20.40;99.90;;;;;;1047501;28;20174;-68
2022/07/05 02:31:37;;;;;;;1.17;1.10;;;20.40;99.90;;;;;;1047636;28;20021;-68
2022/07/05 02:32:07;;;;;;;2.23;1.47;;;20.40;99.90;;;;;;1047431;28;20651;-68
2022/07/05 02:32:38;;;;;;;1.63;1.20;;;20.40;99.90;;;;;;1047500;28;20027;-69
2022/07/05 02:33:08;;;;;;;1.10;1.00;;;20.40;99.90;;;;;;1047100;28;20111;-68
2022/07/05 02:33:39;;;;;;;1.60;1.10;;;20.40;99.90;;;;;;1047107;28;20021;-67
2022/07/05 02:34:10;;;;;;;2.03;1.10;;;20.40;99.90;;;;;;1047326;28;20063;-68
2022/07/05 02:34:41;;;;;;;1.55;1.10;;;20.40;99.90;;;;;;1046957;28;20255;-68
2022/07/05 02:35:13;;;;;;;1.63;1.23;;;20.40;99.90;;;;;;1047137;28;20036;-68
2022/07/05 02:35:43;;;;;;;1.42;1.33;;;20.40;99.90;;;;;;1047048;28;20039;-68
2022/07/05 02:36:14;;;;;;;1.70;0.97;;;20.40;99.90;;;;;;1047443;28;20108;-67
2022/07/05 02:36:45;;;;;;;1.38;1.00;;;20.40;99.90;;;;;;1046859;28;20024;-68
2022/07/05 02:37:16;;;;;;;1.10;1.00;;;20.40;99.90;;;;;;1047279;28;20028;-68
2022/07/05 02:37:46;;;;;;;3.33;1.57;;;20.40;99.90;;;;;;1047007;28;20050;-68
2022/07/05 02:38:17;;;;;;;1.60;1.37;;;20.40;99.90;;;;;;1047198;28;20058;-68
2022/07/05 02:38:47;;;;;;;1.53;1.20;;;20.40;99.90;;;;;;1047392;28;20090;-68
2022/07/05 02:39:18;;;;;;;1.87;1.30;;;20.40;99.90;;;;;;1047641;28;20146;-68
2022/07/05 02:39:48;;;;;;;1.10;1.00;;;20.40;99.90;;;;;;1047333;28;20055;-68
2022/07/05 02:40:19;;;;;;;0.90;0.90;;;20.40;99.90;;;;;;1047507;28;20028;-66
2022/07/05 02:40:49;;;;;;;1.07;0.97;;;20.40;99.90;;;;;;1047662;28;20092;-68
2022/07/05 02:41:20;;;;;;;1.30;1.20;;;20.40;99.90;;;;;;1047407;28;20422;-68
2022/07/05 02:41:51;;;;;;;1.30;1.20;;;20.40;99.90;;;;;;1047568;28;20543;-68
2022/07/05 02:42:21;;;;;;;3.93;1.10;;;20.40;99.90;;;;;;1047371;28;20024;-68
2022/07/05 02:42:52;;;;;;;1.60;1.10;;;20.40;99.90;;;;;;1047654;28;20020;-68
2022/07/05 02:43:22;;;;;;;1.90;1.43;;;20.40;99.90;;;;;;1047507;28;20017;-68